Time;durP1;ratioP1;P1;durP2;ratioP2;P2;SDS_P1;SDS_P2;PMS_P1;PMS_P2;Temp;Humidity;BMP_temperature;BMP_pressure;BME280_temperature;BME280_humidity;BME280_pressure;Samples;Min_cycle;Max_cycle;Signal;HPM_P1;HPM_P2
2022/08/19 11:24:42;;;;;;;7.97;3.70;;;;;;;;;;5064733;28;20184;-64
2022/08/19 11:27:09;;;;;;;8.07;3.58;;;;;;;;;;5060031;28;20131;-65
2022/08/19 11:29:37;;;;;;;7.35;3.28;;;;;;;;;;5066775;28;20584;-65
2022/08/19 11:32:05;;;;;;;8.48;3.55;;;;;;;;;;5065977;28;20041;-64
2022/08/19 11:34:31;;;;;;;7.95;3.60;;;;;;;;;;5060023;28;20071;-64
2022/08/19 11:36:58;;;;;;;6.55;3.42;;;;;;;;;;5045767;28;20049;-64
2022/08/19 11:39:25;;;;;;;8.00;3.50;;;;;;;;;;5052630;28;20136;-64
2022/08/19 11:41:51;;;;;;;6.78;3.17;;;;;;;;;;5056838;28;20122;-64
2022/08/19 11:44:17;;;;;;;6.80;3.83;;;;;;;;;;5060331;28;20037;-64
2022/08/19 11:46:45;;;;;;;5.53;3.00;;;;;;;;;;5053353;28;20041;-64
2022/08/19 11:49:12;;;;;;;8.65;3.25;;;;;;;;;;5047405;28;20049;-64
2022/08/19 11:51:38;;;;;;;6.50;3.30;;;;;;;;;;5080180;28;20080;-64
2022/08/19 11:54:05;;;;;;;6.75;2.90;;;;;;;;;;5057289;28;20041;-64
2022/08/19 11:56:31;;;;;;;7.65;3.42;;;;;;;;;;5060499;28;20095;-64
2022/08/19 11:58:57;;;;;;;5.60;2.80;;;;;;;;;;5051291;28;20041;-64
2022/08/19 12:01:24;;;;;;;10.50;3.40;;;;;;;;;;5050948;28;20080;-64
2022/08/19 12:03:51;;;;;;;6.10;3.42;;;;;;;;;;5066656;28;20496;-64
2022/08/19 12:06:28;;;;;;;6.00;3.15;;;;;;;;;;5064486;28;20036;-64
2022/08/19 12:08:54;;;;;;;6.68;3.17;;;;;;;;;;5082857;28;20049;-64
2022/08/19 12:11:21;;;;;;;5.70;3.10;;;;;;;;;;5065257;28;20076;-64
2022/08/19 12:13:47;;;;;;;8.30;3.53;;;;;;;;;;5056719;28;20067;-64
2022/08/19 12:16:16;;;;;;;7.43;2.95;;;;;;;;;;5051667;28;20045;-65
2022/08/19 12:18:46;;;;;;;11.93;4.07;;;;;;;;;;5053280;28;20561;-64
2022/08/19 12:21:28;;;;;;;8.55;3.83;;;;;;;;;;5064316;28;20047;-64
2022/08/19 12:23:54;;;;;;;8.57;3.15;;;;;;;;;;5080322;28;20097;-64
2022/08/19 12:26:20;;;;;;;7.15;3.70;;;;;;;;;;5085863;28;20044;-62
2022/08/19 12:28:47;;;;;;;8.95;3.95;;;;;;;;;;5085895;28;20052;-63
2022/08/19 12:31:14;;;;;;;8.25;4.35;;;;;;;;;;5067743;28;20123;-64
2022/08/19 12:33:41;;;;;;;8.73;3.72;;;;;;;;;;5080556;28;20040;-63
2022/08/19 12:36:09;;;;;;;10.70;4.13;;;;;;;;;;5058679;28;20052;-63
2022/08/19 12:38:35;;;;;;;8.40;3.72;;;;;;;;;;5066654;28;20115;-63
2022/08/19 12:41:05;;;;;;;6.90;3.75;;;;;;;;;;5065478;28;20063;-63
2022/08/19 12:43:31;;;;;;;8.23;4.13;;;;;;;;;;5061063;28;20123;-63
2022/08/19 12:45:57;;;;;;;7.90;4.32;;;;;;;;;;5056315;28;20509;-63
2022/08/19 12:48:23;;;;;;;9.82;4.10;;;;;;;;;;5059491;28;20037;-63
2022/08/19 12:50:49;;;;;;;10.77;4.72;;;;;;;;;;5066404;28;20056;-63
2022/08/19 12:53:15;;;;;;;9.80;4.53;;;;;;;;;;5055481;28;20052;-63
2022/08/19 12:55:43;;;;;;;9.48;4.38;;;;;;;;;;5053405;28;20051;-63
2022/08/19 12:58:09;;;;;;;10.43;4.18;;;;;;;;;;5069401;28;20487;-63
2022/08/19 13:00:35;;;;;;;11.27;4.60;;;;;;;;;;5062381;28;20049;-63
2022/08/19 13:03:01;;;;;;;7.47;4.10;;;;;;;;;;5067191;28;20082;-63
2022/08/19 13:05:29;;;;;;;8.27;3.53;;;;;;;;;;5059663;28;20036;-61
2022/08/19 13:07:56;;;;;;;6.90;3.65;;;;;;;;;;5070895;28;20040;-62
2022/08/19 13:10:23;;;;;;;6.80;3.70;;;;;;;;;;5072015;28;20037;-62
2022/08/19 13:12:50;;;;;;;10.02;3.67;;;;;;;;;;5070778;28;20055;-62
2022/08/19 13:15:20;;;;;;;6.88;3.53;;;;;;;;;;5071371;28;20111;-62
2022/08/19 13:17:48;;;;;;;8.93;4.15;;;;;;;;;;5072563;28;20172;-62
2022/08/19 13:20:15;;;;;;;6.05;3.38;;;;;;;;;;5070952;28;20040;-63
2022/08/19 13:22:42;;;;;;;8.13;3.40;;;;;;;;;;5064108;28;20057;-63
2022/08/19 13:25:08;;;;;;;11.05;3.72;;;;;;;;;;5058167;28;20067;-62
2022/08/19 13:27:35;;;;;;;7.90;3.55;;;;;;;;;;5071398;28;20063;-63
2022/08/19 13:35:31;;;;;;;7.88;3.30;;;;;;;;;;5070720;28;20460;-63
2022/08/19 13:37:57;;;;;;;8.45;3.90;;;;;;;;;;5071958;28;20393;-62
2022/08/19 13:40:26;;;;;;;7.60;4.13;;;;;;;;;;5071198;28;20080;-62
2022/08/19 13:42:53;;;;;;;7.50;3.58;;;;;;;;;;5069407;28;20098;-63
2022/08/19 13:45:24;;;;;;;6.50;3.58;;;;;;;;;;5052970;28;20049;-62
2022/08/19 13:47:51;;;;;;;7.93;3.90;;;;;;;;;;5056765;28;20047;-62
2022/08/19 13:50:19;;;;;;;6.32;3.67;;;;;;;;;;5070993;28;20045;-62
2022/08/19 13:52:45;;;;;;;6.97;3.75;;;;;;;;;;5053492;28;20044;-63
2022/08/19 13:55:12;;;;;;;6.78;3.20;;;;;;;;;;5070732;28;20056;-62
2022/08/19 13:57:38;;;;;;;6.13;3.35;;;;;;;;;;5071111;28;20037;-62
2022/08/19 14:00:07;;;;;;;6.90;3.75;;;;;;;;;;5071820;28;20060;-62
2022/08/19 14:02:33;;;;;;;7.28;3.40;;;;;;;;;;5063088;28;20045;-62
2022/08/19 14:04:59;;;;;;;5.80;3.20;;;;;;;;;;5071012;28;20071;-62
2022/08/19 14:07:25;;;;;;;6.53;3.55;;;;;;;;;;5053783;28;20044;-62
2022/08/19 14:09:51;;;;;;;5.55;3.28;;;;;;;;;;5058999;28;20044;-62
2022/08/19 14:12:21;;;;;;;5.95;3.03;;;;;;;;;;5071387;28;20110;-62
2022/08/19 14:14:47;;;;;;;6.05;2.97;;;;;;;;;;5071230;28;20040;-62
2022/08/19 14:17:13;;;;;;;5.93;2.92;;;;;;;;;;5070351;28;20051;-62
2022/08/19 14:19:40;;;;;;;6.07;3.25;;;;;;;;;;5071141;28;20145;-62
2022/08/19 14:22:06;;;;;;;6.72;3.10;;;;;;;;;;5053018;28;20139;-62
2022/08/19 14:24:32;;;;;;;6.18;2.92;;;;;;;;;;5069612;28;20048;-62
2022/08/19 14:26:59;;;;;;;4.70;2.92;;;;;;;;;;5068825;28;20068;-62
2022/08/19 14:29:28;;;;;;;5.05;2.88;;;;;;;;;;5056233;28;20098;-62
2022/08/19 14:31:54;;;;;;;5.40;2.97;;;;;;;;;;5050141;28;20401;-63
2022/08/19 14:34:20;;;;;;;5.40;2.90;;;;;;;;;;5051495;28;20501;-62
2022/08/19 14:36:46;;;;;;;5.22;2.95;;;;;;;;;;5032304;28;20056;-62
2022/08/19 14:39:12;;;;;;;6.75;2.78;;;;;;;;;;5050207;28;20066;-63
2022/08/19 14:41:40;;;;;;;4.30;2.53;;;;;;;;;;5050367;28;20076;-63
2022/08/19 14:44:06;;;;;;;6.07;3.00;;;;;;;;;;5066003;28;20095;-62
2022/08/19 14:46:32;;;;;;;5.10;2.95;;;;;;;;;;5068862;28;20076;-62
2022/08/19 14:48:58;;;;;;;6.00;2.70;;;;;;;;;;5071221;28;20094;-62
2022/08/19 14:51:26;;;;;;;5.15;2.58;;;;;;;;;;5069055;28;20048;-63
2022/08/19 14:53:53;;;;;;;4.82;2.95;;;;;;;;;;5049910;28;20119;-62
2022/08/19 14:56:21;;;;;;;4.78;2.65;;;;;;;;;;5066573;28;20109;-62
2022/08/19 14:58:51;;;;;;;4.57;2.80;;;;;;;;;;5058261;28;20109;-62
2022/08/19 15:01:17;;;;;;;5.40;2.95;;;;;;;;;;5051812;28;20048;-63
2022/08/19 15:03:43;;;;;;;4.78;2.83;;;;;;;;;;5069966;28;20041;-62
2022/08/19 15:06:09;;;;;;;4.97;2.40;;;;;;;;;;5069860;28;20138;-62
2022/08/19 15:08:38;;;;;;;5.50;2.65;;;;;;;;;;5069077;28;20087;-62
2022/08/19 15:11:09;;;;;;;5.53;2.80;;;;;;;;;;5068032;28;20162;-62
2022/08/19 15:13:35;;;;;;;5.00;3.00;;;;;;;;;;5052805;28;20040;-62
2022/08/19 15:16:01;;;;;;;3.60;2.42;;;;;;;;;;5069573;28;20043;-62
2022/08/19 15:18:27;;;;;;;5.20;3.10;;;;;;;;;;5067876;28;20037;-62
2022/08/19 15:20:54;;;;;;;5.32;2.85;;;;;;;;;;5068439;28;20257;-62
2022/08/19 15:23:21;;;;;;;4.35;2.60;;;;;;;;;;5050908;28;20608;-62
2022/08/19 15:25:47;;;;;;;5.28;2.85;;;;;;;;;;5049004;28;20603;-62
2022/08/19 15:28:15;;;;;;;4.28;2.60;;;;;;;;;;5069728;28;20090;-63
2022/08/19 15:30:41;;;;;;;4.32;2.60;;;;;;;;;;5068008;28;20063;-63
2022/08/19 15:33:07;;;;;;;5.35;2.55;;;;;;;;;;5070447;28;20047;-62
2022/08/19 15:35:33;;;;;;;5.05;2.88;;;;;;;;;;5068917;28;20799;-62
2022/08/19 15:37:59;;;;;;;4.80;2.85;;;;;;;;;;5070201;28;20051;-62
2022/08/19 15:40:27;;;;;;;6.28;2.72;;;;;;;;;;5050689;28;20052;-62
2022/08/19 15:42:53;;;;;;;4.85;2.47;;;;;;;;;;5049907;28;20044;-62
2022/08/19 15:45:21;;;;;;;3.88;2.38;;;;;;;;;;5034726;28;20544;-62
2022/08/19 15:47:48;;;;;;;4.07;2.50;;;;;;;;;;5069949;28;20072;-62
2022/08/19 15:50:20;;;;;;;4.30;2.38;;;;;;;;;;5059876;28;20466;-62
2022/08/19 15:52:53;;;;;;;6.63;2.50;;;;;;;;;;5054502;28;20032;-62
2022/08/19 15:55:20;;;;;;;4.15;2.13;;;;;;;;;;5067601;28;20097;-62
2022/08/19 16:08:48;;;;;;;7.60;3.10;;;;;;;;;;5061216;28;20056;-63
2022/08/19 16:11:18;;;;;;;3.88;2.30;;;;;;;;;;5070442;28;20044;-62
2022/08/19 16:13:44;;;;;;;5.75;2.60;;;;;;;;;;5070273;28;20485;-62
2022/08/19 16:16:10;;;;;;;4.32;2.60;;;;;;;;;;5070757;28;20116;-62
2022/08/19 16:18:37;;;;;;;3.85;2.42;;;;;;;;;;5069378;28;20044;-64
2022/08/19 16:21:05;;;;;;;4.05;2.38;;;;;;;;;;5059686;28;20047;-64
2022/08/19 16:23:31;;;;;;;5.05;2.47;;;;;;;;;;5058096;28;20489;-64
2022/08/19 16:25:57;;;;;;;5.05;2.42;;;;;;;;;;5055190;28;20482;-64
2022/08/19 16:28:24;;;;;;;4.68;2.78;;;;;;;;;;5060907;28;20040;-66
2022/08/19 16:30:51;;;;;;;13.50;4.57;;;;;;;;;;5067796;28;20045;-62
2022/08/19 16:33:17;;;;;;;8.57;4.22;;;;;;;;;;5071546;28;20489;-62
2022/08/19 16:35:43;;;;;;;9.05;4.35;;;;;;;;;;5068978;28;20491;-62
2022/08/19 16:38:09;;;;;;;8.85;4.63;;;;;;;;;;5071580;28;20047;-63
2022/08/19 16:40:35;;;;;;;10.55;4.78;;;;;;;;;;5070547;28;20093;-62
2022/08/19 16:43:01;;;;;;;10.18;4.43;;;;;;;;;;5052837;28;20041;-62
2022/08/19 16:45:28;;;;;;;9.57;5.50;;;;;;;;;;5065425;28;20045;-62
2022/08/19 16:47:56;;;;;;;9.57;4.25;;;;;;;;;;5050672;28;20051;-62
2022/08/19 16:50:22;;;;;;;8.82;4.72;;;;;;;;;;5066608;28;20119;-62
2022/08/19 16:52:49;;;;;;;9.23;4.53;;;;;;;;;;5051535;28;20071;-62
2022/08/19 16:55:15;;;;;;;7.75;3.90;;;;;;;;;;5051108;28;20129;-62
2022/08/19 16:57:42;;;;;;;8.35;4.07;;;;;;;;;;5069777;28;20052;-61
2022/08/19 17:00:12;;;;;;;9.35;4.88;;;;;;;;;;5068582;28;20041;-62
2022/08/19 17:02:38;;;;;;;9.30;4.13;;;;;;;;;;5044793;28;20056;-61
2022/08/19 17:05:08;;;;;;;8.88;4.50;;;;;;;;;;5047833;28;20454;-62
2022/08/19 17:07:35;;;;;;;8.20;3.80;;;;;;;;;;5067836;28;20397;-62
2022/08/19 17:10:02;;;;;;;7.43;4.03;;;;;;;;;;5052861;28;20377;-61
2022/08/19 17:12:28;;;;;;;8.02;4.13;;;;;;;;;;5071594;28;20045;-64
2022/08/19 17:14:55;;;;;;;7.60;3.78;;;;;;;;;;5071417;28;20048;-64
2022/08/19 17:17:21;;;;;;;8.20;3.65;;;;;;;;;;5067021;28;20040;-64
2022/08/19 17:19:47;;;;;;;6.28;3.70;;;;;;;;;;5070104;28;20052;-63
2022/08/19 17:22:13;;;;;;;7.82;3.40;;;;;;;;;;5065496;28;20033;-63
2022/08/19 17:24:40;;;;;;;8.35;4.15;;;;;;;;;;5066118;28;20127;-63
2022/08/19 17:27:06;;;;;;;6.70;3.63;;;;;;;;;;5049169;28;20059;-64
2022/08/19 17:29:32;;;;;;;5.90;3.10;;;;;;;;;;5061813;28;20040;-63
2022/08/19 17:31:59;;;;;;;6.15;3.40;;;;;;;;;;5064527;28;20093;-63
2022/08/19 17:34:25;;;;;;;5.80;3.17;;;;;;;;;;5068531;28;20481;-63
2022/08/19 17:36:51;;;;;;;7.20;3.40;;;;;;;;;;5068021;28;20119;-63
2022/08/19 17:39:17;;;;;;;7.20;3.42;;;;;;;;;;5070150;28;20064;-63
2022/08/19 17:41:43;;;;;;;8.57;3.58;;;;;;;;;;5067032;28;20473;-64
2022/08/19 17:44:09;;;;;;;6.65;3.63;;;;;;;;;;5068946;28;20481;-63
2022/08/19 17:46:36;;;;;;;7.85;3.67;;;;;;;;;;5066278;28;20037;-64
2022/08/19 17:49:02;;;;;;;7.28;3.47;;;;;;;;;;5046729;28;20045;-63
2022/08/19 17:51:43;;;;;;;6.03;3.38;;;;;;;;;;5066882;28;20048;-63
2022/08/19 17:54:14;;;;;;;6.90;3.50;;;;;;;;;;5049866;28;20359;-64
2022/08/19 17:56:40;;;;;;;6.45;3.83;;;;;;;;;;5066472;28;20051;-65
2022/08/19 17:59:07;;;;;;;6.32;3.78;;;;;;;;;;5065348;28;20484;-63
2022/08/19 18:01:33;;;;;;;6.32;3.35;;;;;;;;;;5062215;28;20482;-64
2022/08/19 18:04:00;;;;;;;7.68;4.07;;;;;;;;;;5063461;28;20036;-63
2022/08/19 18:06:27;;;;;;;5.55;3.15;;;;;;;;;;5066089;28;20045;-63
2022/08/19 18:08:53;;;;;;;7.45;3.78;;;;;;;;;;5048748;28;20037;-64
2022/08/19 18:11:19;;;;;;;7.03;3.25;;;;;;;;;;5054165;28;20040;-63
2022/08/19 18:13:45;;;;;;;6.65;3.58;;;;;;;;;;5067872;28;20040;-63
2022/08/19 18:16:12;;;;;;;6.25;3.40;;;;;;;;;;5057242;28;20072;-63
2022/08/19 18:18:39;;;;;;;6.10;3.28;;;;;;;;;;5053646;28;20036;-64
2022/08/19 18:21:05;;;;;;;5.80;3.38;;;;;;;;;;5061819;28;20045;-63
2022/08/19 18:23:32;;;;;;;7.13;3.28;;;;;;;;;;5059334;28;20071;-63
2022/08/19 18:25:59;;;;;;;7.80;3.63;;;;;;;;;;5051569;28;20056;-64
2022/08/19 18:28:25;;;;;;;7.03;3.70;;;;;;;;;;5053666;28;20079;-64
2022/08/19 18:30:51;;;;;;;6.60;3.65;;;;;;;;;;5056764;28;20047;-63
2022/08/19 18:33:17;;;;;;;6.47;3.47;;;;;;;;;;5057981;28;20110;-64
2022/08/19 18:35:45;;;;;;;7.93;3.72;;;;;;;;;;5055456;28;20040;-63
2022/08/19 18:49:17;;;;;;;6.82;3.45;;;;;;;;;;5067388;28;20051;-64
2022/08/19 18:51:43;;;;;;;6.85;3.33;;;;;;;;;;5065590;28;20111;-64
2022/08/19 18:54:09;;;;;;;5.75;3.15;;;;;;;;;;5061831;28;20063;-65
2022/08/19 18:56:38;;;;;;;4.28;2.85;;;;;;;;;;5063412;28;20040;-64
2022/08/19 18:59:04;;;;;;;6.35;3.38;;;;;;;;;;5047240;28;20072;-64
2022/08/19 19:01:35;;;;;;;6.53;3.15;;;;;;;;;;5064570;28;20102;-64
2022/08/19 19:04:03;;;;;;;5.88;3.00;;;;;;;;;;5064361;28;20539;-64
2022/08/19 19:06:33;;;;;;;6.38;3.40;;;;;;;;;;5062020;28;20816;-64
2022/08/19 19:08:59;;;;;;;5.38;3.00;;;;;;;;;;5048098;28;20551;-64
2022/08/19 19:11:31;;;;;;;6.03;3.20;;;;;;;;;;5063969;28;20142;-64
2022/08/19 19:14:00;;;;;;;7.30;3.40;;;;;;;;;;5064345;28;20043;-64
2022/08/19 19:16:26;;;;;;;5.40;3.22;;;;;;;;;;5061473;28;20520;-64
2022/08/19 19:18:53;;;;;;;6.28;3.00;;;;;;;;;;5048635;28;20358;-64
2022/08/19 19:21:21;;;;;;;5.35;3.08;;;;;;;;;;5063347;28;20047;-64
2022/08/19 19:23:47;;;;;;;5.60;2.95;;;;;;;;;;5048400;28;20603;-64
2022/08/19 19:26:14;;;;;;;6.20;3.00;;;;;;;;;;5048390;28;20052;-64
2022/08/19 19:28:43;;;;;;;5.13;3.25;;;;;;;;;;5066500;28;20043;-64
2022/08/19 19:31:11;;;;;;;5.50;3.33;;;;;;;;;;5064412;28;20048;-64
2022/08/19 19:33:38;;;;;;;5.43;2.90;;;;;;;;;;5068093;28;20197;-64
2022/08/19 19:36:04;;;;;;;5.68;3.28;;;;;;;;;;5063813;28;20047;-64
2022/08/19 19:38:30;;;;;;;5.70;3.28;;;;;;;;;;5067760;28;20040;-64
2022/08/19 19:40:56;;;;;;;6.95;3.55;;;;;;;;;;5066936;28;20037;-64
2022/08/19 19:43:22;;;;;;;6.22;2.80;;;;;;;;;;5065863;28;20858;-64
2022/08/19 19:45:48;;;;;;;5.65;3.10;;;;;;;;;;5067471;28;20082;-64
2022/08/19 19:48:15;;;;;;;5.70;3.08;;;;;;;;;;5070348;28;20412;-64
2022/08/19 19:50:42;;;;;;;4.82;2.80;;;;;;;;;;5070513;28;20091;-64
2022/08/19 19:53:08;;;;;;;4.88;3.00;;;;;;;;;;5054400;28;20477;-64
2022/08/19 19:55:35;;;;;;;4.68;2.60;;;;;;;;;;5071673;28;20052;-64
2022/08/19 19:58:03;;;;;;;5.68;3.20;;;;;;;;;;5067638;28;20041;-64
2022/08/19 20:00:29;;;;;;;5.63;2.95;;;;;;;;;;5070323;28;20137;-64
2022/08/19 20:02:55;;;;;;;4.63;2.88;;;;;;;;;;5070333;28;20051;-64
2022/08/19 20:05:22;;;;;;;6.68;2.78;;;;;;;;;;5069033;28;20040;-64
2022/08/19 20:10:34;;;;;;;5.60;3.17;;;;;;;;;;5068704;28;20140;-64
2022/08/19 20:13:03;;;;;;;4.45;2.80;;;;;;;;;;5054461;28;20500;-64
2022/08/19 20:15:30;;;;;;;4.45;2.67;;;;;;;;;;5070901;28;20080;-64
2022/08/19 20:17:58;;;;;;;4.28;2.78;;;;;;;;;;5072306;28;20037;-64
2022/08/19 20:20:24;;;;;;;4.68;2.83;;;;;;;;;;5070519;28;20129;-64
2022/08/19 20:22:50;;;;;;;4.97;2.80;;;;;;;;;;5071867;28;20079;-64
2022/08/19 20:25:18;;;;;;;5.93;3.08;;;;;;;;;;5071250;28;20481;-64
2022/08/19 20:27:44;;;;;;;5.28;2.83;;;;;;;;;;5069659;28;20397;-64
2022/08/19 20:30:13;;;;;;;5.15;2.63;;;;;;;;;;5070873;28;20040;-64
2022/08/19 20:32:41;;;;;;;4.32;2.75;;;;;;;;;;5070703;28;20044;-64
2022/08/19 20:35:07;;;;;;;5.18;2.53;;;;;;;;;;5067150;28;21835;-64
2022/08/19 20:37:34;;;;;;;5.47;3.13;;;;;;;;;;5069907;28;20051;-64
2022/08/19 20:40:00;;;;;;;3.72;2.55;;;;;;;;;;5071191;28;20035;-64
2022/08/19 20:42:26;;;;;;;5.07;2.33;;;;;;;;;;5069447;28;20116;-64
2022/08/19 20:44:52;;;;;;;3.88;2.55;;;;;;;;;;5070690;28;20098;-64
2022/08/19 20:47:18;;;;;;;4.78;2.72;;;;;;;;;;5069778;28;20072;-64
2022/08/19 20:49:44;;;;;;;4.90;3.08;;;;;;;;;;5071980;28;20040;-64
2022/08/19 20:52:10;;;;;;;5.30;2.70;;;;;;;;;;5052978;28;20037;-64
2022/08/19 20:54:36;;;;;;;3.47;2.30;;;;;;;;;;5071882;28;20123;-64
2022/08/19 20:57:04;;;;;;;4.88;2.60;;;;;;;;;;5069329;28;20044;-64
2022/08/19 20:59:30;;;;;;;4.70;2.65;;;;;;;;;;5070693;28;20268;-64
2022/08/19 21:01:56;;;;;;;5.45;2.70;;;;;;;;;;5070782;28;20528;-65
2022/08/19 21:04:22;;;;;;;4.00;2.40;;;;;;;;;;5071511;28;20575;-64
2022/08/19 21:06:49;;;;;;;5.38;2.53;;;;;;;;;;5070708;28;20047;-64
2022/08/19 21:09:15;;;;;;;4.65;2.70;;;;;;;;;;5071196;28;20614;-64
2022/08/19 21:11:41;;;;;;;5.38;2.42;;;;;;;;;;5070966;28;20119;-64
2022/08/19 21:14:07;;;;;;;4.18;2.38;;;;;;;;;;5070509;28;20561;-64
2022/08/19 21:16:33;;;;;;;3.97;2.42;;;;;;;;;;5070077;28;20052;-64
2022/08/19 21:18:59;;;;;;;3.47;2.45;;;;;;;;;;5070224;28;20485;-64
2022/08/19 21:21:25;;;;;;;4.43;2.70;;;;;;;;;;5065867;28;20036;-64
2022/08/19 21:23:52;;;;;;;3.10;2.10;;;;;;;;;;5070020;28;20048;-64
2022/08/19 21:26:18;;;;;;;4.50;2.80;;;;;;;;;;5051140;28;20105;-64
2022/08/19 21:28:44;;;;;;;4.30;2.60;;;;;;;;;;5069465;28;20079;-64
2022/08/19 21:31:10;;;;;;;3.28;2.10;;;;;;;;;;5050480;28;20676;-64
2022/08/19 21:33:37;;;;;;;3.55;2.25;;;;;;;;;;5049260;28;20051;-64
2022/08/19 21:36:04;;;;;;;4.95;2.40;;;;;;;;;;5068736;28;20040;-64
2022/08/19 21:38:30;;;;;;;5.30;3.00;;;;;;;;;;5069551;28;20044;-64
2022/08/19 21:40:56;;;;;;;3.63;2.13;;;;;;;;;;5069499;28;20635;-64
2022/08/19 21:43:23;;;;;;;3.97;2.30;;;;;;;;;;5065195;28;20763;-64
2022/08/19 21:45:49;;;;;;;4.18;2.55;;;;;;;;;;5068076;28;20094;-64
2022/08/19 21:48:16;;;;;;;4.60;2.70;;;;;;;;;;5069132;28;20370;-64
2022/08/19 21:50:44;;;;;;;4.28;2.40;;;;;;;;;;5066670;28;20041;-64
2022/08/19 21:53:10;;;;;;;4.22;2.40;;;;;;;;;;5048628;28;20390;-64
2022/08/19 21:55:36;;;;;;;4.60;2.67;;;;;;;;;;5050434;28;20094;-64
2022/08/19 21:58:03;;;;;;;4.28;2.40;;;;;;;;;;5068219;28;20530;-64
2022/08/19 22:00:30;;;;;;;5.45;2.63;;;;;;;;;;5066621;28;20036;-64
2022/08/19 22:02:57;;;;;;;3.65;2.05;;;;;;;;;;5066398;28;20044;-64
2022/08/19 22:05:23;;;;;;;3.75;2.10;;;;;;;;;;5065917;28;20052;-64
2022/08/19 22:07:50;;;;;;;3.92;2.38;;;;;;;;;;5066655;28;20127;-64
2022/08/19 22:10:16;;;;;;;5.18;2.40;;;;;;;;;;5048174;28;20043;-64
2022/08/19 22:12:43;;;;;;;3.38;2.20;;;;;;;;;;5066674;28;20101;-64
2022/08/19 22:15:11;;;;;;;3.92;2.13;;;;;;;;;;5067037;28;20063;-64
2022/08/19 22:17:37;;;;;;;3.83;2.25;;;;;;;;;;5066513;28;20194;-64
2022/08/19 22:20:04;;;;;;;3.92;2.45;;;;;;;;;;5049428;28;20047;-64
2022/08/19 22:22:31;;;;;;;3.55;2.38;;;;;;;;;;5062445;28;20048;-64
2022/08/19 22:25:10;;;;;;;4.05;2.20;;;;;;;;;;5069167;28;20041;-64
2022/08/19 22:27:36;;;;;;;3.38;2.17;;;;;;;;;;5063252;28;20235;-64
2022/08/19 22:30:05;;;;;;;3.38;2.08;;;;;;;;;;5066946;28;20032;-64
2022/08/19 22:32:31;;;;;;;3.28;2.20;;;;;;;;;;5064810;28;20055;-64
2022/08/19 22:34:59;;;;;;;3.92;2.42;;;;;;;;;;5049726;28;20389;-64
2022/08/19 22:37:25;;;;;;;6.13;2.30;;;;;;;;;;5064445;28;20462;-64
2022/08/19 22:39:51;;;;;;;3.40;2.20;;;;;;;;;;5065372;28;20205;-64
2022/08/19 22:42:18;;;;;;;4.70;2.40;;;;;;;;;;5066545;28;20389;-64
2022/08/19 22:44:45;;;;;;;3.42;2.30;;;;;;;;;;5065889;28;20489;-64
2022/08/19 22:47:11;;;;;;;3.05;2.08;;;;;;;;;;5064889;28;20047;-64
2022/08/19 22:49:37;;;;;;;3.75;2.30;;;;;;;;;;5065222;28;20053;-64
2022/08/19 22:52:16;;;;;;;3.97;2.17;;;;;;;;;;5065213;28;20246;-64
2022/08/19 22:54:46;;;;;;;4.53;2.22;;;;;;;;;;5063799;28;20063;-64
2022/08/19 22:57:13;;;;;;;4.70;2.40;;;;;;;;;;5068551;28;20602;-64
2022/08/19 22:59:39;;;;;;;3.20;2.10;;;;;;;;;;5066853;28;20105;-64
2022/08/19 23:02:06;;;;;;;4.82;2.40;;;;;;;;;;5064375;28;20618;-64
2022/08/19 23:04:32;;;;;;;4.47;2.50;;;;;;;;;;5049094;28;20044;-64
2022/08/19 23:06:59;;;;;;;4.72;2.30;;;;;;;;;;5048139;28;20028;-64
2022/08/19 23:09:25;;;;;;;4.80;2.42;;;;;;;;;;5068004;28;20040;-64
2022/08/19 23:11:51;;;;;;;3.13;2.10;;;;;;;;;;5066455;28;20048;-64
2022/08/19 23:14:17;;;;;;;4.13;2.58;;;;;;;;;;5069269;28;20037;-64
2022/08/19 23:16:44;;;;;;;2.92;1.90;;;;;;;;;;5068257;28;20455;-64
2022/08/19 23:19:11;;;;;;;3.67;2.42;;;;;;;;;;5068160;28;20083;-64
2022/08/19 23:21:38;;;;;;;3.80;2.30;;;;;;;;;;5048209;28;20056;-64
2022/08/19 23:24:04;;;;;;;3.28;2.13;;;;;;;;;;5049895;28;20049;-64
2022/08/19 23:26:31;;;;;;;2.85;1.95;;;;;;;;;;5063297;28;20041;-64
2022/08/19 23:31:41;;;;;;;3.70;2.35;;;;;;;;;;5067340;28;20048;-64
2022/08/19 23:34:07;;;;;;;4.53;2.53;;;;;;;;;;5069188;28;20405;-64
2022/08/19 23:36:33;;;;;;;7.65;2.53;;;;;;;;;;5047146;28;20061;-64
2022/08/19 23:39:00;;;;;;;3.30;2.15;;;;;;;;;;5062883;28;20062;-64
2022/08/19 23:41:26;;;;;;;3.70;2.20;;;;;;;;;;5045873;28;20497;-64
2022/08/19 23:43:53;;;;;;;2.83;1.70;;;;;;;;;;5049811;28;20041;-64
2022/08/19 23:46:19;;;;;;;3.58;2.17;;;;;;;;;;5062475;28;20037;-64
2022/08/19 23:48:45;;;;;;;3.50;2.42;;;;;;;;;;5067448;28;20615;-64
2022/08/19 23:51:13;;;;;;;2.67;1.88;;;;;;;;;;5067082;28;20044;-64
2022/08/19 23:53:40;;;;;;;4.63;2.72;;;;;;;;;;5068692;28;20037;-64
2022/08/19 23:56:06;;;;;;;2.95;1.80;;;;;;;;;;5069310;28;20485;-64
2022/08/19 23:58:33;;;;;;;3.63;2.17;;;;;;;;;;5068879;28;20045;-63
